Minerva Tychi — SVCD7 — position and weather

sailwx.info

Track history (hours):
 
Tides and Currents Weather Stations Pressure Air Temp Water Temp Dewpoint Dewpoint Depression Visibility Wind Speed Wind Dir Waves Ship Positions

Minerva Tychi

Last reported at 2017-Dec-14 07:59 UTC. Time now 2017-Dec-16 05:12 UTC.
Position N 71°03' E 030°24'.

Length 184 m; draft 8 m.

Type: Tanker. MMSI: 241372000.

Date/timePositionNaut miles runAvg speedWind from/ knotsBaromVisibWave heightAir tempDewpointWater temp
2017-Dec-14 07:59N 71°03' E 030°24'714.6
2017-Dec-14 07:30N 71°07' E 030°07'713.9
2017-Dec-14 07:00N 71°12' E 029°50'713.6
2017-Dec-14 06:30N 71°16' E 029°33'713.4
2017-Dec-14 06:00N 71°20' E 029°16'  
2017-Dec-09 11:20N 51°36' E 002°23'511.6
2017-Dec-09 10:53N 51°32' E 002°17'511.9
2017-Dec-09 10:30N 51°29' E 002°13'611.8
2017-Dec-09 10:00N 51°24' E 002°08'611.9
2017-Dec-09 09:30N 51°21' E 002°16'612.7
2017-Dec-09 09:00N 51°22' E 002°26'711.9
2017-Dec-09 08:26N 51°24' E 002°37'1 1.6
2017-Dec-09 07:54N 51°24' E 002°38'0 0.1
2017-Dec-09 07:30N 51°24' E 002°38'0 0.0
2017-Dec-09 06:48N 51°24' E 002°38'0 0.0
2017-Dec-09 06:27N 51°24' E 002°38'0 0.0
2017-Dec-09 06:00N 51°24' E 002°38'0 0.0
2017-Dec-09 05:30N 51°24' E 002°38'0 0.0
2017-Dec-09 05:00N 51°24' E 002°38'0 0.0
2017-Dec-09 04:21N 51°24' E 002°38'0 0.0
2017-Dec-09 04:00N 51°24' E 002°38'0 0.0
2017-Dec-09 03:30N 51°24' E 002°38'0 0.1
2017-Dec-09 03:00N 51°24' E 002°38'0 0.1
2017-Dec-09 02:30N 51°24' E 002°38'0 0.0
2017-Dec-09 02:00N 51°24' E 002°38'0 0.1
2017-Dec-09 01:30N 51°24' E 002°38'0 0.0
2017-Dec-09 01:00N 51°24' E 002°38'0 0.0
2017-Dec-09 00:30N 51°24' E 002°38'0 0.0
2017-Dec-08 23:54N 51°24' E 002°38'0 0.0
2017-Dec-08 23:30N 51°24' E 002°38'0 0.0
2017-Dec-08 23:00N 51°24' E 002°38'0 0.0
2017-Dec-08 22:30N 51°24' E 002°38'0 0.1
2017-Dec-08 22:00N 51°24' E 002°38'0 0.0
2017-Dec-08 21:24N 51°24' E 002°38'0 0.1
2017-Dec-08 21:00N 51°24' E 002°38'0 0.0
2017-Dec-08 20:30N 51°24' E 002°38'0 0.0
2017-Dec-08 19:57N 51°24' E 002°38'0 0.1
2017-Dec-08 19:30N 51°24' E 002°38'0 0.0
2017-Dec-08 19:00N 51°24' E 002°38'0 0.1
2017-Dec-08 18:30N 51°24' E 002°38'0 0.0
2017-Dec-08 17:57N 51°24' E 002°38'0 0.0
2017-Dec-08 17:27N 51°24' E 002°38'0 0.0
2017-Dec-08 17:00N 51°24' E 002°38'0 0.0
2017-Dec-08 16:27N 51°24' E 002°38'0 0.0
2017-Dec-08 15:54N 51°24' E 002°38'0 0.0
2017-Dec-08 15:27N 51°24' E 002°38'0 0.1
2017-Dec-08 14:51N 51°24' E 002°38'0 0.0
2017-Dec-08 14:30N 51°24' E 002°38'0 0.0
2017-Dec-08 13:54N 51°24' E 002°38'0 0.0
2017-Dec-08 13:18N 51°24' E 002°38'0 0.1
2017-Dec-08 13:00N 51°24' E 002°38'0 0.0
2017-Dec-08 12:27N 51°24' E 002°38'0 0.1
2017-Dec-08 12:00N 51°24' E 002°38'0 0.0
2017-Dec-08 11:27N 51°24' E 002°38'0 0.0
2017-Dec-08 10:42N 51°24' E 002°38'0 0.0
2017-Dec-08 10:30N 51°24' E 002°38'0 0.0
2017-Dec-08 10:00N 51°24' E 002°38'0 0.0
2017-Dec-08 09:30N 51°24' E 002°38'0 0.0
2017-Dec-08 08:57N 51°24' E 002°38'1 1.8
2017-Dec-08 08:21N 51°24' E 002°39'2 6.8
2017-Dec-08 08:00N 51°22' E 002°42'4 6.9
2017-Dec-08 07:29N 51°22' E 002°48'511.0
2017-Dec-08 07:00N 51°23' E 002°56'510.8
2017-Dec-08 06:30N 51°24' E 003°05'510.5
2017-Dec-08 06:00N 51°25' E 003°13'611.5
2017-Dec-08 05:30N 51°25' E 003°22'611.5
2017-Dec-08 05:00N 51°25' E 003°32'3 6.3
2017-Dec-08 04:30N 51°26' E 003°37'4 7.8
2017-Dec-08 04:00N 51°25' E 003°43'510.5
2017-Dec-08 03:30N 51°21' E 003°48'510.1
2017-Dec-08 03:00N 51°23' E 003°56'4 9.0
2017-Dec-08 02:30N 51°26' E 004°01'5 9.8
2017-Dec-08 02:00N 51°22' E 004°06'4 8.4
2017-Dec-08 01:30N 51°23' E 004°13'3 6.5
2017-Dec-08 01:00N 51°21' E 004°17'0 0.0
2017-Dec-08 00:30N 51°21' E 004°17'0 0.0
2017-Dec-08 00:00N 51°21' E 004°17'2 3.1
2017-Dec-07 23:30N 51°19' E 004°19'3 6.4
2017-Dec-07 23:00N 51°17' E 004°21'1 1.7
2017-Dec-07 22:25N 51°16' E 004°21'0 0.0
2017-Dec-07 21:58N 51°16' E 004°21'0 0.0
2017-Dec-07 21:22N 51°16' E 004°21'0 0.0
2017-Dec-07 20:58N 51°16' E 004°21'0 0.0
2017-Dec-07 20:25N 51°16' E 004°21'0 0.0
2017-Dec-07 19:58N 51°16' E 004°21'0 0.0
2017-Dec-07 19:25N 51°16' E 004°21'0 0.0
2017-Dec-07 18:55N 51°16' E 004°21'0 0.0
2017-Dec-07 18:25N 51°16' E 004°21'0 0.0
2017-Dec-07 17:58N 51°16' E 004°21'0 0.0
2017-Dec-07 17:28N 51°16' E 004°21'0 0.0
2017-Dec-07 16:58N 51°16' E 004°21'0 0.0
2017-Dec-07 16:28N 51°16' E 004°21'0 0.0
2017-Dec-07 15:58N 51°16' E 004°21'0 0.0
2017-Dec-07 15:28N 51°16' E 004°21'0 0.0
2017-Dec-07 14:55N 51°16' E 004°21'0 0.0
2017-Dec-07 14:28N 51°16' E 004°21'0 0.0
2017-Dec-07 13:55N 51°16' E 004°21'0 0.0
2017-Dec-07 13:22N 51°16' E 004°21'0 0.0
2017-Dec-07 12:58N 51°16' E 004°21'0 0.0
2017-Dec-07 12:30N 51°16' E 004°21'0 0.0
2017-Dec-07 12:00N 51°16' E 004°21'0 0.0
2017-Dec-07 11:30N 51°16' E 004°21'0 0.0
2017-Dec-07 11:00N 51°16' E 004°21'0 0.3
2017-Dec-07 10:31N 51°16' E 004°21'1 1.8
2017-Dec-07 10:00N 51°17' E 004°21'0 0.5
2017-Dec-07 09:23N 51°16' E 004°21'0 0.0
2017-Dec-07 08:59N 51°16' E 004°21'0 0.0
2017-Dec-07 08:26N 51°16' E 004°21'0 0.0
2017-Dec-07 07:59N 51°16' E 004°21'0 0.0
2017-Dec-07 07:26N 51°16' E 004°21'0 0.0
2017-Dec-07 06:59N 51°16' E 004°21'0 0.0
2017-Dec-07 06:26N 51°16' E 004°21'0 0.0
2017-Dec-07 05:59N 51°16' E 004°21'0 0.0
2017-Dec-07 05:26N 51°16' E 004°21'0 0.0
2017-Dec-07 04:56N 51°16' E 004°21'0 0.0
2017-Dec-07 04:20N 51°16' E 004°21'0 0.0
2017-Dec-07 03:56N 51°16' E 004°21'0 0.0
2017-Dec-07 03:29N 51°16' E 004°21'0 0.0
2017-Dec-07 02:56N 51°16' E 004°21'0 0.0
2017-Dec-07 02:23N 51°16' E 004°21'0 0.0
2017-Dec-07 01:59N 51°16' E 004°21'0 0.0
2017-Dec-07 01:29N 51°16' E 004°21'0 0.0
2017-Dec-07 00:59N 51°16' E 004°21'0 0.0
2017-Dec-07 00:23N 51°16' E 004°21'0 0.0
2017-Dec-06 23:53N 51°16' E 004°21'0 0.0
2017-Dec-06 23:29N 51°16' E 004°21'0 0.0
2017-Dec-06 22:44N 51°16' E 004°21'0 0.0
2017-Dec-06 22:29N 51°16' E 004°21'0 0.0
2017-Dec-06 21:56N 51°16' E 004°21'0 0.0
2017-Dec-06 21:29N 51°16' E 004°21'0 0.0
2017-Dec-06 20:56N 51°16' E 004°21'  
2017-Dec-04 09:57N 51°25' E 002°34'0 0.0
2017-Dec-04 08:45N 51°25' E 002°34'0 0.0
2017-Dec-04 08:30N 51°25' E 002°34'  
Track history (hours):
 
Tides and Currents Weather Stations Pressure Air Temp Water Temp Dewpoint Dewpoint Depression Visibility Wind Speed Wind Dir Waves Ship Positions

Minerva Tychi

Last reported at 2017-Dec-14 07:59 UTC. Time now 2017-Dec-16 05:12 UTC.
Position N 71°03' E 030°24'.

Length 184 m; draft 8 m.

Type: Tanker. MMSI: 241372000.

Date/timePositionNaut miles runAvg speedWind from/ knotsBaromVisibWave heightAir tempDewpointWater temp
2017-Dec-14 07:59N 71°03' E 030°24'714.6
2017-Dec-14 07:30N 71°07' E 030°07'713.9
2017-Dec-14 07:00N 71°12' E 029°50'713.6
2017-Dec-14 06:30N 71°16' E 029°33'713.4
2017-Dec-14 06:00N 71°20' E 029°16'  
2017-Dec-09 11:20N 51°36' E 002°23'511.6
2017-Dec-09 10:53N 51°32' E 002°17'511.9
2017-Dec-09 10:30N 51°29' E 002°13'611.8
2017-Dec-09 10:00N 51°24' E 002°08'611.9
2017-Dec-09 09:30N 51°21' E 002°16'612.7
2017-Dec-09 09:00N 51°22' E 002°26'711.9
2017-Dec-09 08:26N 51°24' E 002°37'1 1.6
2017-Dec-09 07:54N 51°24' E 002°38'0 0.1
2017-Dec-09 07:30N 51°24' E 002°38'0 0.0
2017-Dec-09 06:48N 51°24' E 002°38'0 0.0
2017-Dec-09 06:27N 51°24' E 002°38'0 0.0
2017-Dec-09 06:00N 51°24' E 002°38'0 0.0
2017-Dec-09 05:30N 51°24' E 002°38'0 0.0
2017-Dec-09 05:00N 51°24' E 002°38'0 0.0
2017-Dec-09 04:21N 51°24' E 002°38'0 0.0
2017-Dec-09 04:00N 51°24' E 002°38'0 0.0
2017-Dec-09 03:30N 51°24' E 002°38'0 0.1
2017-Dec-09 03:00N 51°24' E 002°38'0 0.1
2017-Dec-09 02:30N 51°24' E 002°38'0 0.0
2017-Dec-09 02:00N 51°24' E 002°38'0 0.1
2017-Dec-09 01:30N 51°24' E 002°38'0 0.0
2017-Dec-09 01:00N 51°24' E 002°38'0 0.0
2017-Dec-09 00:30N 51°24' E 002°38'0 0.0
2017-Dec-08 23:54N 51°24' E 002°38'0 0.0
2017-Dec-08 23:30N 51°24' E 002°38'0 0.0
2017-Dec-08 23:00N 51°24' E 002°38'0 0.0
2017-Dec-08 22:30N 51°24' E 002°38'0 0.1
2017-Dec-08 22:00N 51°24' E 002°38'0 0.0
2017-Dec-08 21:24N 51°24' E 002°38'0 0.1
2017-Dec-08 21:00N 51°24' E 002°38'0 0.0
2017-Dec-08 20:30N 51°24' E 002°38'0 0.0
2017-Dec-08 19:57N 51°24' E 002°38'0 0.1
2017-Dec-08 19:30N 51°24' E 002°38'0 0.0
2017-Dec-08 19:00N 51°24' E 002°38'0 0.1
2017-Dec-08 18:30N 51°24' E 002°38'0 0.0
2017-Dec-08 17:57N 51°24' E 002°38'0 0.0
2017-Dec-08 17:27N 51°24' E 002°38'0 0.0
2017-Dec-08 17:00N 51°24' E 002°38'0 0.0
2017-Dec-08 16:27N 51°24' E 002°38'0 0.0
2017-Dec-08 15:54N 51°24' E 002°38'0 0.0
2017-Dec-08 15:27N 51°24' E 002°38'0 0.1
2017-Dec-08 14:51N 51°24' E 002°38'0 0.0
2017-Dec-08 14:30N 51°24' E 002°38'0 0.0
2017-Dec-08 13:54N 51°24' E 002°38'0 0.0
2017-Dec-08 13:18N 51°24' E 002°38'0 0.1
2017-Dec-08 13:00N 51°24' E 002°38'0 0.0
2017-Dec-08 12:27N 51°24' E 002°38'0 0.1
2017-Dec-08 12:00N 51°24' E 002°38'0 0.0
2017-Dec-08 11:27N 51°24' E 002°38'0 0.0
2017-Dec-08 10:42N 51°24' E 002°38'0 0.0
2017-Dec-08 10:30N 51°24' E 002°38'0 0.0
2017-Dec-08 10:00N 51°24' E 002°38'0 0.0
2017-Dec-08 09:30N 51°24' E 002°38'0 0.0
2017-Dec-08 08:57N 51°24' E 002°38'1 1.8
2017-Dec-08 08:21N 51°24' E 002°39'2 6.8
2017-Dec-08 08:00N 51°22' E 002°42'4 6.9
2017-Dec-08 07:29N 51°22' E 002°48'511.0
2017-Dec-08 07:00N 51°23' E 002°56'510.8
2017-Dec-08 06:30N 51°24' E 003°05'510.5
2017-Dec-08 06:00N 51°25' E 003°13'611.5
2017-Dec-08 05:30N 51°25' E 003°22'611.5
2017-Dec-08 05:00N 51°25' E 003°32'3 6.3
2017-Dec-08 04:30N 51°26' E 003°37'4 7.8
2017-Dec-08 04:00N 51°25' E 003°43'510.5
2017-Dec-08 03:30N 51°21' E 003°48'510.1
2017-Dec-08 03:00N 51°23' E 003°56'4 9.0
2017-Dec-08 02:30N 51°26' E 004°01'5 9.8
2017-Dec-08 02:00N 51°22' E 004°06'4 8.4
2017-Dec-08 01:30N 51°23' E 004°13'3 6.5
2017-Dec-08 01:00N 51°21' E 004°17'0 0.0
2017-Dec-08 00:30N 51°21' E 004°17'0 0.0
2017-Dec-08 00:00N 51°21' E 004°17'2 3.1
2017-Dec-07 23:30N 51°19' E 004°19'3 6.4
2017-Dec-07 23:00N 51°17' E 004°21'1 1.7
2017-Dec-07 22:25N 51°16' E 004°21'0 0.0
2017-Dec-07 21:58N 51°16' E 004°21'0 0.0
2017-Dec-07 21:22N 51°16' E 004°21'0 0.0
2017-Dec-07 20:58N 51°16' E 004°21'0 0.0
2017-Dec-07 20:25N 51°16' E 004°21'0 0.0
2017-Dec-07 19:58N 51°16' E 004°21'0 0.0
2017-Dec-07 19:25N 51°16' E 004°21'0 0.0
2017-Dec-07 18:55N 51°16' E 004°21'0 0.0
2017-Dec-07 18:25N 51°16' E 004°21'0 0.0
2017-Dec-07 17:58N 51°16' E 004°21'0 0.0
2017-Dec-07 17:28N 51°16' E 004°21'0 0.0
2017-Dec-07 16:58N 51°16' E 004°21'0 0.0
2017-Dec-07 16:28N 51°16' E 004°21'0 0.0
2017-Dec-07 15:58N 51°16' E 004°21'0 0.0
2017-Dec-07 15:28N 51°16' E 004°21'0 0.0
2017-Dec-07 14:55N 51°16' E 004°21'0 0.0
2017-Dec-07 14:28N 51°16' E 004°21'0 0.0
2017-Dec-07 13:55N 51°16' E 004°21'0 0.0
2017-Dec-07 13:22N 51°16' E 004°21'0 0.0
2017-Dec-07 12:58N 51°16' E 004°21'0 0.0
2017-Dec-07 12:30N 51°16' E 004°21'0 0.0
2017-Dec-07 12:00N 51°16' E 004°21'0 0.0
2017-Dec-07 11:30N 51°16' E 004°21'0 0.0
2017-Dec-07 11:00N 51°16' E 004°21'0 0.3
2017-Dec-07 10:31N 51°16' E 004°21'1 1.8
2017-Dec-07 10:00N 51°17' E 004°21'0 0.5
2017-Dec-07 09:23N 51°16' E 004°21'0 0.0
2017-Dec-07 08:59N 51°16' E 004°21'0 0.0
2017-Dec-07 08:26N 51°16' E 004°21'0 0.0
2017-Dec-07 07:59N 51°16' E 004°21'0 0.0
2017-Dec-07 07:26N 51°16' E 004°21'0 0.0
2017-Dec-07 06:59N 51°16' E 004°21'0 0.0
2017-Dec-07 06:26N 51°16' E 004°21'0 0.0
2017-Dec-07 05:59N 51°16' E 004°21'0 0.0
2017-Dec-07 05:26N 51°16' E 004°21'0 0.0
2017-Dec-07 04:56N 51°16' E 004°21'0 0.0
2017-Dec-07 04:20N 51°16' E 004°21'0 0.0
2017-Dec-07 03:56N 51°16' E 004°21'0 0.0
2017-Dec-07 03:29N 51°16' E 004°21'0 0.0
2017-Dec-07 02:56N 51°16' E 004°21'0 0.0
2017-Dec-07 02:23N 51°16' E 004°21'0 0.0
2017-Dec-07 01:59N 51°16' E 004°21'0 0.0
2017-Dec-07 01:29N 51°16' E 004°21'0 0.0
2017-Dec-07 00:59N 51°16' E 004°21'0 0.0
2017-Dec-07 00:23N 51°16' E 004°21'0 0.0
2017-Dec-06 23:53N 51°16' E 004°21'0 0.0
2017-Dec-06 23:29N 51°16' E 004°21'0 0.0
2017-Dec-06 22:44N 51°16' E 004°21'0 0.0
2017-Dec-06 22:29N 51°16' E 004°21'0 0.0
2017-Dec-06 21:56N 51°16' E 004°21'0 0.0
2017-Dec-06 21:29N 51°16' E 004°21'0 0.0
2017-Dec-06 20:56N 51°16' E 004°21'  
2017-Dec-04 09:57N 51°25' E 002°34'0 0.0
2017-Dec-04 08:45N 51°25' E 002°34'0 0.0
2017-Dec-04 08:30N 51°25' E 002°34'  

Dump ship's entire track history